Kliever, Missouri
Current Conditions -  °F | °C
As of 11:53 PM on Friday 19 Dec 2014 (Local Time) from KJEF Reporting Station
Haze Haze  
Wind Chill: 31°   Ceiling: 1300
Heat Index: 36°   Visibility: 6mi
Dew Point: 32°   Wind: 6mph
Humidity: 86%   Direction: 110°ESE
Pressure: 30.25"   Gusts: NA
Location:  38.6124°N, 92.5168°W
Report Text: KJEF 200553Z AUTO 11005KT 6SM BR OVC013 02/00 A3025 RMK AO2 SLP236 T00220000 10028 20022 400330006 50002
Loading
Personal Weather Stations






























Interactive Weather Map New forecast layout! Learn more

10-Day Weather Forecast

Advertisements
Track Severe Weather on mobile